Time;durP1;ratioP1;P1;durP2;ratioP2;P2;SDS_P1;SDS_P2;PMS_P1;PMS_P2;Temp;Humidity;BMP_temperature;BMP_pressure;BME280_temperature;BME280_humidity;BME280_pressure;Samples;Min_cycle;Max_cycle;Signal;HPM_P1;HPM_P2
2022/03/06 00:00:33;;;;;;;19.73;13.93;;;;;;;4.82;75.49;94157.06;5065064;28;20183;-78
2022/03/06 00:02:59;;;;;;;16.10;8.90;;;;;;;4.79;75.86;94157.38;5060477;28;20206;-78
2022/03/06 00:05:24;;;;;;;13.03;9.03;;;;;;;4.49;76.48;94165.78;5063600;28;20186;-78
2022/03/06 00:07:50;;;;;;;13.43;11.37;;;;;;;4.40;76.82;94163.38;5059137;28;20187;-79
2022/03/06 00:10:15;;;;;;;14.93;10.83;;;;;;;4.64;76.25;94158.09;5051458;28;20284;-78
2022/03/06 00:12:41;;;;;;;13.63;11.30;;;;;;;4.66;76.17;94157.94;5061463;28;20227;-79
2022/03/06 00:15:06;;;;;;;9.00;5.77;;;;;;;4.61;76.55;94158.44;5059095;28;20178;-79
2022/03/06 00:17:32;;;;;;;11.07;9.10;;;;;;;4.55;75.97;94159.09;5060560;28;20201;-79
2022/03/06 00:19:57;;;;;;;12.13;10.30;;;;;;;3.92;77.82;94158.19;5054103;28;20194;-78
2022/03/06 00:22:23;;;;;;;13.67;9.83;;;;;;;4.18;78.35;94157.16;5051572;28;20175;-78
2022/03/06 00:24:48;;;;;;;13.30;10.30;;;;;;;4.37;77.39;94158.56;5057089;28;20181;-78
2022/03/06 00:27:14;;;;;;;13.00;10.57;;;;;;;4.30;77.22;94150.63;5057013;28;20183;-79
2022/03/06 00:29:39;;;;;;;12.50;10.40;;;;;;;4.34;76.18;94157.09;5057978;28;20179;-78
2022/03/06 00:32:05;;;;;;;12.63;10.50;;;;;;;4.49;76.36;94155.41;5057476;28;20214;-78
2022/03/06 00:34:31;;;;;;;10.53;9.37;;;;;;;4.31;76.73;94144.50;5053343;28;20182;-78
2022/03/06 00:36:56;;;;;;;12.60;10.57;;;;;;;4.18;78.03;94157.16;5058426;28;20183;-78
2022/03/06 00:39:22;;;;;;;8.10;7.33;;;;;;;4.39;77.52;94146.25;5056824;28;20179;-79
2022/03/06 00:41:47;;;;;;;9.33;8.40;;;;;;;4.41;77.25;94152.88;5057773;28;20384;-79
2022/03/06 00:44:16;;;;;;;7.60;6.77;;;;;;;4.41;77.32;94142.50;5054693;28;20258;-78
2022/03/06 00:46:42;;;;;;;10.77;9.50;;;;;;;4.68;75.99;94137.84;5057249;28;20183;-78
2022/03/06 00:49:07;;;;;;;6.47;5.00;;;;;;;4.30;77.02;94137.69;5061245;28;20405;-78
2022/03/06 00:51:33;;;;;;;13.17;9.77;;;;;;;4.63;75.65;94129.75;5054327;28;20187;-78
2022/03/06 00:54:01;;;;;;;12.43;10.67;;;;;;;4.16;77.47;94128.06;5053752;28;20246;-78
2022/03/06 00:56:27;;;;;;;6.30;5.37;;;;;;;4.54;76.73;94120.44;5047723;28;20250;-79
2022/03/06 00:58:52;;;;;;;12.13;10.80;;;;;;;4.37;76.92;94125.69;5055752;28;20444;-79
2022/03/06 01:01:17;;;;;;;7.50;6.80;;;;;;;4.44;76.39;94118.84;5056423;28;20187;-79
2022/03/06 01:03:43;;;;;;;10.97;8.50;;;;;;;4.41;76.50;94118.38;5053558;28;20698;-79
2022/03/06 01:06:09;;;;;;;12.20;9.67;;;;;;;4.36;76.82;94118.09;5060455;28;20297;-79
2022/03/06 01:08:34;;;;;;;13.40;9.07;;;;;;;4.53;75.95;94126.59;5058631;28;20185;-79
2022/03/06 01:11:02;;;;;;;11.00;7.47;;;;;;;4.26;76.81;94115.69;5054388;28;20249;-78
2022/03/06 01:13:28;;;;;;;11.53;9.60;;;;;;;4.45;76.22;94114.47;5058689;28;20187;-79
2022/03/06 01:15:53;;;;;;;9.40;7.40;;;;;;;4.37;76.70;94117.13;5061133;28;20435;-79
2022/03/06 01:18:20;;;;;;;7.40;5.67;;;;;;;4.36;76.62;94118.88;5062128;28;20432;-79
2022/03/06 01:20:45;;;;;;;9.50;7.30;;;;;;;4.50;75.61;94109.59;5061017;28;20198;-78
2022/03/06 01:23:11;;;;;;;9.43;7.63;;;;;;;4.33;76.88;94114.06;5056561;28;20464;-79
2022/03/06 01:25:37;;;;;;;10.57;7.67;;;;;;;4.50;76.10;94107.81;5057362;28;20190;-79
2022/03/06 01:28:03;;;;;;;8.40;5.77;;;;;;;4.47;76.52;94110.72;5055891;28;20186;-79
2022/03/06 01:30:29;;;;;;;12.80;9.50;;;;;;;4.43;75.68;94104.28;5061006;28;20424;-78
2022/03/06 01:32:55;;;;;;;12.60;9.70;;;;;;;4.24;77.13;94117.66;5046286;28;20426;-78
2022/03/06 01:35:21;;;;;;;10.00;8.97;;;;;;;4.36;76.74;94103.34;5049298;28;20263;-78
2022/03/06 01:37:47;;;;;;;11.30;7.77;;;;;;;4.63;76.53;94104.66;5060405;28;20202;-79
2022/03/06 01:40:14;;;;;;;11.73;10.53;;;;;;;4.50;75.59;94105.22;5064888;28;20421;-78
2022/03/06 01:42:42;;;;;;;9.47;8.47;;;;;;;4.26;77.41;94090.59;5057434;28;20811;-78
2022/03/06 01:45:09;;;;;;;13.80;9.43;;;;;;;4.04;77.42;94106.88;5061976;28;20480;-78
2022/03/06 01:47:45;;;;;;;15.20;10.90;;;;;;;4.29;76.40;94097.25;5062336;28;20471;-79
2022/03/06 01:50:15;;;;;;;11.47;10.27;;;;;;;4.54;76.05;94099.72;5064301;28;20443;-78
2022/03/06 01:52:41;;;;;;;15.80;13.20;;;;;;;4.70;75.46;94094.41;5059421;28;20437;-78
2022/03/06 01:55:08;;;;;;;11.57;10.43;;;;;;;4.50;76.34;94078.53;5060029;28;20492;-79
2022/03/06 01:57:34;;;;;;;11.77;10.20;;;;;;;4.48;75.60;94083.88;5062609;28;20440;-79
2022/03/06 02:00:00;;;;;;;17.70;14.10;;;;;;;4.60;76.03;94091.25;5053998;28;20428;-78
2022/03/06 02:02:26;;;;;;;16.93;13.43;;;;;;;4.32;77.09;94076.16;5060133;28;20420;-79
2022/03/06 02:04:52;;;;;;;16.10;13.60;;;;;;;4.52;75.71;94086.13;5055194;28;20782;-79
2022/03/06 02:07:17;;;;;;;13.60;9.00;;;;;;;4.60;75.65;94079.09;5051750;28;20434;-79
2022/03/06 02:09:43;;;;;;;12.93;9.20;;;;;;;4.91;74.39;94087.81;5055251;28;20178;-78
2022/03/06 02:12:24;;;;;;;19.97;15.00;;;;;;;4.48;75.40;94086.44;5065474;28;20265;-79
2022/03/06 02:15:00;;;;;;;19.33;13.47;;;;;;;4.38;75.27;94091.06;5046306;28;20644;-79
2022/03/06 02:17:27;;;;;;;17.93;13.03;;;;;;;4.58;76.48;94077.66;5046498;28;20442;-78
2022/03/06 02:20:11;;;;;;;16.50;11.07;;;;;;;4.65;75.14;94081.19;5052944;28;20421;-78
2022/03/06 02:22:39;;;;;;;13.10;11.30;;;;;;;4.73;75.06;94078.53;5057286;28;20437;-79
2022/03/06 02:25:16;;;;;;;17.10;12.73;;;;;;;4.63;75.32;94078.75;5045555;28;20417;-79
2022/03/06 02:27:41;;;;;;;13.70;11.30;;;;;;;4.43;75.09;94083.56;5048429;28;20486;-79
2022/03/06 02:30:10;;;;;;;19.90;13.90;;;;;;;4.69;75.43;94080.66;5055900;28;20413;-80
2022/03/06 02:32:37;;;;;;;15.80;11.57;;;;;;;4.65;74.97;94070.81;5048325;28;20179;-78
2022/03/06 02:35:03;;;;;;;15.07;11.77;;;;;;;4.91;75.45;94069.66;5056233;28;20413;-78
2022/03/06 02:37:28;;;;;;;14.87;11.27;;;;;;;4.85;73.76;94065.97;5051291;28;20445;-78
2022/03/06 02:39:54;;;;;;;8.50;7.50;;;;;;;4.58;74.17;94070.69;5056256;28;20417;-79
2022/03/06 02:42:30;;;;;;;13.93;11.10;;;;;;;5.02;73.89;94067.44;5051211;28;20179;-79
2022/03/06 02:44:58;;;;;;;14.20;10.97;;;;;;;4.29;75.55;94073.94;5055033;28;20170;-79
2022/03/06 02:47:24;;;;;;;10.53;8.93;;;;;;;4.81;74.21;94073.28;5051514;28;21046;-78
2022/03/06 02:49:49;;;;;;;11.83;9.93;;;;;;;4.47;74.75;94071.06;5050987;28;20517;-78
2022/03/06 02:52:15;;;;;;;13.00;10.70;;;;;;;4.99;73.08;94073.00;5050210;28;20279;-78
2022/03/06 02:54:41;;;;;;;13.03;9.10;;;;;;;4.64;73.93;94076.97;5052971;28;20175;-79
2022/03/06 02:57:07;;;;;;;8.17;6.70;;;;;;;4.81;73.40;94075.88;5056056;28;20478;-78
2022/03/06 02:59:33;;;;;;;8.10;6.77;;;;;;;4.77;72.80;94077.19;5053785;28;20205;-78
2022/03/06 03:01:58;;;;;;;6.70;6.00;;;;;;;4.38;74.74;94074.69;5056870;28;20446;-78
2022/03/06 03:04:24;;;;;;;5.70;5.20;;;;;;;4.57;74.21;94076.03;5048150;28;20454;-79
2022/03/06 03:06:50;;;;;;;6.37;5.73;;;;;;;4.55;73.75;94080.59;5064426;28;20186;-79
2022/03/06 03:09:21;;;;;;;6.20;5.60;;;;;;;4.83;73.81;94079.09;5059849;28;20163;-79
2022/03/06 03:11:47;;;;;;;8.03;7.23;;;;;;;4.79;73.35;94083.03;5057025;28;20556;-79
2022/03/06 03:14:14;;;;;;;6.70;5.87;;;;;;;4.46;74.53;94088.41;5055165;28;20429;-79
2022/03/06 03:16:40;;;;;;;4.83;4.40;;;;;;;4.75;73.70;94086.94;5058754;28;20797;-79
2022/03/06 03:19:06;;;;;;;6.77;5.43;;;;;;;4.57;74.59;94096.75;5053982;28;20420;-78
2022/03/06 03:21:31;;;;;;;9.27;7.57;;;;;;;4.56;74.75;94101.16;5047870;28;20422;-79
2022/03/06 03:23:57;;;;;;;7.70;6.80;;;;;;;4.72;74.62;94096.84;5049147;28;20191;-79
2022/03/06 03:26:22;;;;;;;9.00;6.80;;;;;;;4.38;75.26;94096.22;5060551;28;20182;-78
2022/03/06 03:28:48;;;;;;;8.40;7.60;;;;;;;4.37;75.35;94099.00;5053547;28;20176;-78
2022/03/06 03:31:13;;;;;;;5.90;5.40;;;;;;;4.36;74.76;94095.56;5060697;28;20203;-78
2022/03/06 03:33:39;;;;;;;4.20;3.73;;;;;;;4.34;75.53;94094.94;5047821;28;20246;-78
2022/03/06 03:36:05;;;;;;;7.43;6.73;;;;;;;4.23;76.83;94095.31;5066360;28;20193;-78
2022/03/06 03:38:30;;;;;;;11.47;7.90;;;;;;;4.42;75.81;94097.50;5053869;28;20270;-78
2022/03/06 03:40:56;;;;;;;7.23;6.57;;;;;;;4.53;75.96;94093.69;5065216;28;20190;-78
2022/03/06 03:43:22;;;;;;;4.87;4.40;;;;;;;4.16;76.70;94102.16;5057698;28;20187;-79
2022/03/06 03:45:48;;;;;;;6.37;5.87;;;;;;;4.10;76.82;94096.69;5061409;28;20186;-79
2022/03/06 03:48:13;;;;;;;6.73;6.10;;;;;;;4.47;75.54;94092.59;5051912;28;20414;-79
2022/03/06 03:50:39;;;;;;;5.07;4.67;;;;;;;4.41;76.16;94100.25;5060583;28;20285;-78
2022/03/06 03:53:04;;;;;;;8.83;6.03;;;;;;;4.03;78.03;94100.91;5051048;28;20171;-78
2022/03/06 03:55:30;;;;;;;5.87;5.37;;;;;;;3.89;77.54;94101.63;5060022;28;20269;-79
2022/03/06 03:57:55;;;;;;;7.10;6.50;;;;;;;3.76;77.84;94104.72;5052764;28;20162;-79
2022/03/06 04:00:21;;;;;;;7.00;5.70;;;;;;;4.17;76.82;94103.75;5059259;28;20261;-78
2022/03/06 04:02:46;;;;;;;3.43;3.13;;;;;;;4.06;77.77;94099.75;5060459;28;20198;-78
2022/03/06 04:05:12;;;;;;;6.63;6.03;;;;;;;4.30;77.53;94093.66;5058672;28;20174;-78
2022/03/06 04:07:37;;;;;;;5.10;4.27;;;;;;;4.08;77.38;94101.22;5066381;28;20204;-79
2022/03/06 04:10:03;;;;;;;5.20;3.73;;;;;;;4.10;78.12;94103.63;5051206;28;20191;-79
2022/03/06 04:12:29;;;;;;;5.00;4.50;;;;;;;4.15;77.86;94113.47;5060719;28;20231;-79
2022/03/06 04:14:54;;;;;;;4.03;3.73;;;;;;;4.11;77.53;94097.47;5056708;28;20415;-78
2022/03/06 04:17:19;;;;;;;4.70;3.87;;;;;;;4.03;77.99;94098.31;5067204;28;20194;-79
2022/03/06 04:19:45;;;;;;;6.47;5.67;;;;;;;4.27;76.90;94101.78;5051509;28;20235;-79
2022/03/06 04:22:10;;;;;;;6.00;5.50;;;;;;;4.39;76.56;94099.63;5059115;28;20201;-78
2022/03/06 04:24:36;;;;;;;4.77;4.30;;;;;;;4.15;76.69;94096.16;5053498;28;20202;-79
2022/03/06 04:27:01;;;;;;;4.33;4.03;;;;;;;4.35;76.57;94099.16;5052211;28;20270;-79
2022/03/06 04:29:27;;;;;;;5.30;4.80;;;;;;;4.17;77.39;94104.56;5053352;28;20259;-79
2022/03/06 04:31:53;;;;;;;4.20;3.90;;;;;;;4.10;77.79;94095.88;5046648;28;20179;-79
2022/03/06 04:34:18;;;;;;;5.13;4.40;;;;;;;4.33;77.12;94102.91;5059342;28;20194;-79
2022/03/06 04:36:43;;;;;;;5.67;5.17;;;;;;;3.51;79.04;94109.16;5065564;28;20190;-79
2022/03/06 04:39:09;;;;;;;7.03;6.13;;;;;;;3.64;78.48;94114.63;5050384;28;20213;-79
2022/03/06 04:41:34;;;;;;;5.57;5.07;;;;;;;4.62;75.44;94097.88;5046741;28;20559;-79
2022/03/06 04:44:00;;;;;;;7.50;4.93;;;;;;;4.30;76.65;94115.19;5054639;28;20250;-79
2022/03/06 04:46:25;;;;;;;7.50;6.37;;;;;;;4.38;76.58;94101.41;5056325;28;20182;-78
2022/03/06 04:48:51;;;;;;;5.57;5.07;;;;;;;4.12;77.42;94106.88;5052428;28;20198;-78
2022/03/06 04:51:17;;;;;;;5.70;5.20;;;;;;;4.12;76.94;94101.69;5053995;28;20182;-79
2022/03/06 04:53:43;;;;;;;5.10;4.70;;;;;;;3.74;77.30;94108.41;5047287;28;20172;-79
2022/03/06 04:56:09;;;;;;;4.00;3.60;;;;;;;4.16;76.75;94107.34;5059521;28;20237;-79
2022/03/06 04:58:34;;;;;;;6.57;5.87;;;;;;;4.20;77.24;94103.44;5054928;28;20477;-79
2022/03/06 05:01:00;;;;;;;5.30;4.37;;;;;;;4.27;76.45;94088.84;5060107;28;20438;-80
2022/03/06 05:03:26;;;;;;;6.83;4.90;;;;;;;4.42;76.41;94100.09;5043247;28;20217;-79
2022/03/06 05:05:51;;;;;;;5.07;4.67;;;;;;;4.29;75.72;94092.06;5064415;28;20182;-79
2022/03/06 05:08:17;;;;;;;5.90;5.30;;;;;;;4.19;76.72;94092.28;5054619;28;20218;-79
2022/03/06 05:10:43;;;;;;;3.10;2.90;;;;;;;3.96;76.14;94084.41;5044240;28;20238;-79
2022/03/06 05:13:09;;;;;;;4.77;4.37;;;;;;;4.11;74.77;94092.28;5044990;28;20960;-78
2022/03/06 05:15:35;;;;;;;4.67;4.27;;;;;;;4.21;74.53;94102.44;5049877;28;20236;-79
2022/03/06 05:18:01;;;;;;;3.13;2.93;;;;;;;4.02;74.24;94101.88;5057189;28;20414;-79
2022/03/06 05:20:27;;;;;;;4.10;3.70;;;;;;;3.84;74.79;94103.88;5048100;28;20453;-78
2022/03/06 05:22:52;;;;;;;2.37;2.27;;;;;;;4.06;73.84;94087.63;5058083;28;20429;-79
2022/03/06 05:25:18;;;;;;;2.23;2.07;;;;;;;4.10;72.45;94099.25;5059789;28;20420;-79
2022/03/06 05:27:43;;;;;;;2.60;2.40;;;;;;;4.18;72.27;94095.84;5052306;28;20238;-79
2022/03/06 05:30:11;;;;;;;3.00;2.80;;;;;;;4.17;72.49;94103.75;5060562;28;20179;-79
2022/03/06 05:32:37;;;;;;;3.83;3.53;;;;;;;4.40;71.39;94098.63;5046020;28;20710;-78
2022/03/06 05:35:03;;;;;;;1.90;1.80;;;;;;;3.87;72.36;94111.28;5060488;28;20413;-79
2022/03/06 05:37:29;;;;;;;4.03;2.47;;;;;;;4.07;71.35;94109.16;5052469;28;20242;-78
2022/03/06 05:39:55;;;;;;;2.47;2.27;;;;;;;3.96;71.46;94115.47;5059077;28;20424;-79
2022/03/06 05:42:21;;;;;;;2.53;2.43;;;;;;;3.87;71.34;94106.13;5061980;28;20428;-78
2022/03/06 05:44:46;;;;;;;2.17;2.07;;;;;;;4.16;70.50;94107.34;5078138;28;20199;-78
2022/03/06 05:47:12;;;;;;;2.60;2.50;;;;;;;4.22;69.95;94106.66;5061512;28;20788;-79
2022/03/06 05:49:37;;;;;;;1.83;1.73;;;;;;;4.36;69.29;94118.88;5060599;28;20186;-79
2022/03/06 05:52:03;;;;;;;3.03;2.83;;;;;;;4.43;68.81;94101.69;5052059;28;20221;-78
2022/03/06 05:54:29;;;;;;;2.70;2.50;;;;;;;4.24;69.23;94104.72;5059495;28;20166;-78
2022/03/06 05:56:55;;;;;;;1.40;1.30;;;;;;;4.11;68.81;94106.03;5049331;28;20445;-78
2022/03/06 05:59:21;;;;;;;1.97;1.87;;;;;;;4.21;68.39;94121.41;5053812;28;20413;-78
2022/03/06 06:01:46;;;;;;;1.27;1.20;;;;;;;4.32;68.60;94115.03;5063677;28;20261;-78
2022/03/06 06:04:12;;;;;;;2.10;2.00;;;;;;;4.01;69.60;94108.03;5045377;28;20238;-78
2022/03/06 06:06:38;;;;;;;2.40;1.77;;;;;;;4.09;69.03;94123.53;5058494;28;20242;-78
2022/03/06 06:09:04;;;;;;;1.80;1.70;;;;;;;4.16;69.03;94118.50;5051822;28;20420;-78
2022/03/06 06:11:30;;;;;;;2.73;2.37;;;;;;;3.93;69.31;94126.19;5052631;28;20496;-78
2022/03/06 06:13:55;;;;;;;2.07;1.97;;;;;;;4.26;68.26;94131.25;5042710;28;20900;-78
2022/03/06 06:16:21;;;;;;;2.03;1.93;;;;;;;4.47;67.10;94120.28;5065652;28;20244;-79
2022/03/06 06:18:46;;;;;;;1.60;1.50;;;;;;;4.18;67.65;94137.25;5046004;28;20198;-78
2022/03/06 06:21:13;;;;;;;1.33;1.23;;;;;;;4.15;67.88;94136.78;5053188;28;20178;-78
2022/03/06 06:23:39;;;;;;;1.70;1.60;;;;;;;4.14;67.21;94127.41;5060805;28;20195;-79
2022/03/06 06:26:06;;;;;;;1.13;1.07;;;;;;;4.21;67.64;94128.34;5057741;28;20805;-78
2022/03/06 06:28:31;;;;;;;1.40;1.30;;;;;;;4.05;68.38;94137.78;5055001;28;20417;-79
2022/03/06 06:30:57;;;;;;;3.30;1.53;;;;;;;4.24;68.21;94128.00;5062691;28;20441;-78
2022/03/06 06:33:22;;;;;;;2.00;1.90;;;;;;;3.65;70.35;94134.31;5048914;28;20174;-79
2022/03/06 06:35:48;;;;;;;2.80;2.57;;;;;;;3.72;69.62;94135.28;5048219;28;20187;-78
2022/03/06 06:38:13;;;;;;;2.13;2.03;;;;;;;4.13;69.92;94128.38;5047384;28;20163;-79
2022/03/06 06:40:38;;;;;;;1.73;1.63;;;;;;;4.06;69.62;94129.06;5053615;28;20257;-80
2022/03/06 06:43:04;;;;;;;2.33;1.67;;;;;;;4.27;69.26;94140.63;5056702;28;20199;-79
2022/03/06 06:45:30;;;;;;;4.33;3.07;;;;;;;4.19;69.98;94127.69;5046891;28;20194;-78
2022/03/06 06:47:56;;;;;;;1.63;1.50;;;;;;;4.33;69.11;94139.16;5057731;28;20760;-78
2022/03/06 06:50:22;;;;;;;1.70;1.60;;;;;;;4.31;69.22;94144.50;5051032;28;20417;-78
2022/03/06 06:52:47;;;;;;;1.50;1.40;;;;;;;4.00;70.34;94147.81;5056627;28;20409;-78
2022/03/06 06:55:13;;;;;;;2.13;1.90;;;;;;;4.24;68.72;94146.13;5061567;28;20234;-77
2022/03/06 06:57:38;;;;;;;2.10;1.93;;;;;;;4.31;68.55;94165.22;5048939;28;20171;-78
2022/03/06 07:00:05;;;;;;;1.70;1.60;;;;;;;4.33;68.78;94157.28;5049523;28;20231;-78
2022/03/06 07:02:31;;;;;;;4.57;2.07;;;;;;;4.36;68.33;94149.97;5060387;28;20610;-78
2022/03/06 07:04:56;;;;;;;1.43;1.33;;;;;;;4.17;68.73;94160.72;5060067;28;20461;-78
2022/03/06 07:07:23;;;;;;;1.30;1.20;;;;;;;4.27;68.52;94161.34;5067778;28;20198;-78
2022/03/06 07:09:49;;;;;;;1.77;1.67;;;;;;;4.31;69.20;94149.69;5062965;28;20182;-78
2022/03/06 07:12:15;;;;;;;2.00;1.90;;;;;;;4.30;68.48;94142.88;5050717;28;20526;-78
2022/03/06 07:14:43;;;;;;;2.47;2.37;;;;;;;4.01;69.50;94156.41;5057734;28;20178;-78
2022/03/06 07:17:09;;;;;;;2.23;2.13;;;;;;;4.45;68.09;94158.50;5064121;28;20187;-79
2022/03/06 07:19:34;;;;;;;1.93;1.73;;;;;;;4.50;67.67;94146.66;5047660;28;20410;-78
2022/03/06 07:22:00;;;;;;;2.27;2.13;;;;;;;4.71;66.59;94147.88;5051192;28;20182;-78
2022/03/06 07:24:26;;;;;;;2.47;2.27;;;;;;;4.41;66.55;94145.09;5049219;28;20275;-78
2022/03/06 07:26:52;;;;;;;2.30;2.20;;;;;;;4.48;67.71;94147.81;5051815;28;20279;-78
2022/03/06 07:29:18;;;;;;;2.90;2.70;;;;;;;4.46;68.00;94150.59;5062833;28;20413;-78
2022/03/06 07:31:43;;;;;;;2.23;2.00;;;;;;;4.58;67.12;94157.97;5061691;28;20179;-79
2022/03/06 07:34:08;;;;;;;2.73;2.53;;;;;;;4.46;66.64;94158.34;5076936;28;20228;-78
2022/03/06 07:36:34;;;;;;;2.40;2.00;;;;;;;4.75;65.45;94153.53;5053472;28;20179;-79
2022/03/06 07:39:00;;;;;;;2.33;2.10;;;;;;;4.70;66.28;94146.25;5056212;28;20171;-79
2022/03/06 07:41:25;;;;;;;3.03;2.83;;;;;;;4.94;65.92;94162.66;5047141;28;20701;-78
2022/03/06 07:43:51;;;;;;;2.30;2.13;;;;;;;4.58;66.66;94160.56;5060412;28;20194;-78
2022/03/06 07:46:16;;;;;;;2.67;2.40;;;;;;;4.59;66.86;94159.56;5057090;28;20184;-77
2022/03/06 07:48:42;;;;;;;2.20;2.10;;;;;;;4.95;66.88;94170.25;5059113;28;20514;-77
2022/03/06 07:51:07;;;;;;;2.97;2.70;;;;;;;4.96;66.98;94178.84;5059693;28;20183;-78
2022/03/06 07:53:33;;;;;;;2.67;2.47;;;;;;;4.72;67.44;94180.56;5048030;28;20163;-78
2022/03/06 07:55:58;;;;;;;2.20;2.00;;;;;;;4.73;67.57;94179.59;5043571;28;20245;-78
2022/03/06 07:58:24;;;;;;;3.30;3.13;;;;;;;4.58;67.65;94173.53;5057934;28;20174;-78
2022/03/06 08:00:49;;;;;;;3.60;2.67;;;;;;;4.81;67.09;94171.78;5046742;28;20179;-78
2022/03/06 08:03:15;;;;;;;2.53;2.43;;;;;;;4.59;68.41;94169.94;5048892;28;20198;-78
2022/03/06 08:05:41;;;;;;;2.17;1.97;;;;;;;4.79;67.81;94165.16;5045622;28;20262;-78
2022/03/06 08:08:07;;;;;;;2.97;2.53;;;;;;;4.80;67.26;94172.78;5046695;28;20417;-78
2022/03/06 08:10:33;;;;;;;2.80;2.60;;;;;;;4.56;67.64;94165.91;5056919;28;20576;-78
2022/03/06 08:12:58;;;;;;;3.00;2.83;;;;;;;4.80;68.56;94172.78;5046910;28;20489;-78
2022/03/06 08:15:24;;;;;;;3.50;2.73;;;;;;;4.89;67.34;94171.75;5058866;28;20249;-78
2022/03/06 08:17:49;;;;;;;6.93;3.33;;;;;;;4.87;67.77;94178.06;5053115;28;20177;-78
2022/03/06 08:20:15;;;;;;;2.83;2.63;;;;;;;4.37;69.54;94184.47;5046640;28;20175;-77
2022/03/06 08:22:40;;;;;;;5.13;3.20;;;;;;;4.69;68.52;94183.50;5059993;28;20221;-78
2022/03/06 08:25:07;;;;;;;3.00;2.80;;;;;;;4.69;68.04;94180.91;5054506;28;20171;-79
2022/03/06 08:27:32;;;;;;;4.00;3.70;;;;;;;4.38;68.56;94176.53;5049419;28;20180;-78
2022/03/06 08:29:59;;;;;;;2.67;2.50;;;;;;;4.60;68.62;94192.28;5058439;28;20433;-78
2022/03/06 08:32:24;;;;;;;3.30;3.07;;;;;;;4.86;67.59;94174.66;5057720;28;20194;-78
2022/03/06 08:34:53;;;;;;;3.00;2.80;;;;;;;4.79;68.23;94165.94;5066156;28;20495;-78
2022/03/06 08:37:19;;;;;;;2.53;2.33;;;;;;;4.63;68.39;94160.84;5060310;28;20209;-78
2022/03/06 08:39:48;;;;;;;2.00;1.90;;;;;;;4.72;67.47;94154.66;5056856;28;20413;-78
2022/03/06 08:42:15;;;;;;;3.60;2.97;;;;;;;4.84;67.16;94158.47;5066752;28;20486;-78
2022/03/06 08:44:41;;;;;;;2.90;2.70;;;;;;;4.94;67.68;94162.66;5051077;28;20545;-78
2022/03/06 08:47:07;;;;;;;3.37;3.07;;;;;;;4.98;66.99;94148.34;5044591;28;20465;-78
2022/03/06 08:49:32;;;;;;;2.57;1.97;;;;;;;5.08;66.65;94143.72;5053023;28;20417;-78
2022/03/06 08:51:57;;;;;;;4.80;4.37;;;;;;;4.91;67.61;94158.59;5056601;28;20533;-78
2022/03/06 08:54:23;;;;;;;3.20;2.90;;;;;;;5.11;68.04;94155.56;5044471;28;20175;-78
2022/03/06 08:56:49;;;;;;;3.20;2.60;;;;;;;5.38;67.92;94157.63;5060102;28;20491;-78
2022/03/06 08:59:15;;;;;;;3.60;3.30;;;;;;;5.44;67.92;94169.09;5054364;28;20471;-78
2022/03/06 09:01:40;;;;;;;3.70;3.40;;;;;;;5.18;69.07;94165.06;5080540;28;20175;-78
2022/03/06 09:04:06;;;;;;;2.93;2.63;;;;;;;5.39;68.48;94167.03;5051924;28;20225;-78
2022/03/06 09:06:31;;;;;;;2.93;2.70;;;;;;;5.39;67.98;94155.84;5049841;28;20234;-78
2022/03/06 09:08:57;;;;;;;4.37;3.97;;;;;;;5.24;69.51;94153.22;5056235;28;20205;-78
2022/03/06 09:11:22;;;;;;;5.07;4.60;;;;;;;5.26;69.40;94152.03;5053525;28;20221;-78
2022/03/06 09:13:48;;;;;;;5.70;4.07;;;;;;;5.45;68.89;94147.38;5063570;28;20178;-78
2022/03/06 09:16:15;;;;;;;3.70;3.40;;;;;;;5.79;67.26;94162.47;5051814;28;20222;-78
2022/03/06 09:18:43;;;;;;;6.87;5.50;;;;;;;4.93;69.18;94167.00;5082182;28;20429;-78
2022/03/06 09:21:09;;;;;;;4.67;4.27;;;;;;;5.26;67.54;94166.81;5044176;28;20640;-78
2022/03/06 09:23:34;;;;;;;5.40;4.97;;;;;;;4.94;68.10;94170.41;5060784;28;20496;-78
2022/03/06 09:26:00;;;;;;;4.27;3.97;;;;;;;5.73;66.69;94168.38;5064404;28;20194;-78
2022/03/06 09:28:25;;;;;;;4.70;4.30;;;;;;;5.22;67.83;94166.34;5061415;28;20175;-78
2022/03/06 09:30:51;;;;;;;3.50;3.20;;;;;;;5.53;67.18;94162.84;5065621;28;20207;-78
2022/03/06 09:33:16;;;;;;;3.37;2.80;;;;;;;5.32;67.75;94170.50;5054867;28;20182;-78
2022/03/06 09:35:42;;;;;;;4.67;4.23;;;;;;;5.24;67.87;94164.38;5055519;28;20277;-77
2022/03/06 09:38:07;;;;;;;5.63;5.13;;;;;;;5.40;67.82;94165.22;5060779;28;20202;-79
2022/03/06 09:40:33;;;;;;;6.07;5.47;;;;;;;4.98;68.45;94163.91;5051883;28;20191;-79
2022/03/06 09:42:58;;;;;;;5.40;4.90;;;;;;;5.06;68.67;94166.44;5064714;28;20185;-79
2022/03/06 09:45:24;;;;;;;4.60;4.20;;;;;;;4.79;67.79;94152.19;5064520;28;20518;-79
2022/03/06 09:47:50;;;;;;;4.87;3.90;;;;;;;5.25;65.95;94160.00;5061173;28;20175;-78
2022/03/06 09:50:16;;;;;;;5.40;4.17;;;;;;;5.39;65.74;94166.22;5086726;28;20556;-78
2022/03/06 09:52:42;;;;;;;4.63;3.50;;;;;;;5.05;66.15;94165.66;5065352;28;20182;-79
2022/03/06 09:55:09;;;;;;;5.37;3.90;;;;;;;4.95;66.68;94162.47;5046536;28;20414;-78
2022/03/06 09:57:35;;;;;;;5.83;5.20;;;;;;;5.33;66.18;94161.72;5059489;28;20502;-78
2022/03/06 10:00:01;;;;;;;4.03;3.70;;;;;;;5.22;66.22;94175.91;5051122;28;20613;-78
2022/03/06 10:02:27;;;;;;;4.20;3.80;;;;;;;5.31;65.83;94180.03;5063464;28;20429;-78
2022/03/06 10:04:52;;;;;;;5.00;4.50;;;;;;;5.45;65.00;94178.50;5048642;28;20250;-78
2022/03/06 10:07:19;;;;;;;4.17;3.87;;;;;;;5.40;65.41;94173.00;5061262;28;20212;-78
2022/03/06 10:09:46;;;;;;;3.60;3.30;;;;;;;4.97;66.66;94173.47;5050558;28;20183;-79
2022/03/06 10:12:21;;;;;;;4.17;3.43;;;;;;;5.17;66.41;94173.03;5039435;28;20499;-78
2022/03/06 10:14:47;;;;;;;4.53;4.13;;;;;;;4.73;67.60;94171.81;5048372;28;20827;-78
2022/03/06 10:17:27;;;;;;;4.30;3.90;;;;;;;5.25;66.62;94175.56;5061039;28;20499;-78
2022/03/06 10:20:10;;;;;;;3.20;2.90;;;;;;;4.95;67.14;94179.81;5052976;28;20424;-78
2022/03/06 10:22:40;;;;;;;5.27;3.37;;;;;;;5.21;66.25;94184.66;5050484;28;20418;-78
2022/03/06 10:25:06;;;;;;;5.00;4.50;;;;;;;4.69;66.98;94191.28;5059126;28;20445;-78
2022/03/06 10:27:57;;;;;;;5.30;4.87;;;;;;;4.65;65.93;94195.19;5056083;28;20933;-79
2022/03/06 10:30:32;;;;;;;5.27;4.63;;;;;;;4.77;65.79;94183.47;5042742;28;20197;-78
2022/03/06 10:33:17;;;;;;;5.27;4.77;;;;;;;4.64;66.91;94178.81;5062336;28;20421;-78
2022/03/06 10:35:44;;;;;;;5.50;5.00;;;;;;;4.55;67.74;94173.84;5062568;28;20428;-79
2022/03/06 10:38:30;;;;;;;3.77;3.43;;;;;;;5.01;65.70;94176.53;5064501;28;20421;-78
2022/03/06 10:41:00;;;;;;;4.00;3.80;;;;;;;4.60;66.86;94176.75;5051211;28;20426;-78
2022/03/06 10:43:49;;;;;;;4.47;3.43;;;;;;;5.03;65.76;94169.41;5059583;28;20540;-78
2022/03/06 10:46:19;;;;;;;5.60;5.20;;;;;;;5.03;65.18;94166.81;5047031;28;20482;-79
2022/03/06 10:48:55;;;;;;;5.50;5.10;;;;;;;5.26;64.62;94170.19;5051923;28;20442;-78
2022/03/06 10:51:21;;;;;;;6.77;5.63;;;;;;;5.16;63.96;94156.66;5054262;28;20432;-78
2022/03/06 10:54:08;;;;;;;7.17;5.60;;;;;;;5.17;64.86;94158.25;5056378;28;20421;-78
2022/03/06 10:56:34;;;;;;;7.60;5.80;;;;;;;5.18;64.38;94156.47;5037320;28;20172;-79
2022/03/06 10:59:01;;;;;;;5.80;4.80;;;;;;;5.37;62.61;94160.38;5062125;28;21182;-78
2022/03/06 11:01:28;;;;;;;3.97;2.47;;;;;;;5.10;64.00;94170.31;5047830;28;20174;-78
2022/03/06 11:03:54;;;;;;;5.10;4.73;;;;;;;4.98;65.16;94166.50;5053155;28;20543;-78
2022/03/06 11:06:20;;;;;;;4.27;3.87;;;;;;;5.00;65.48;94174.91;5052198;28;20449;-78
2022/03/06 11:08:46;;;;;;;3.90;3.10;;;;;;;5.15;65.95;94180.19;5061673;28;20439;-78
2022/03/06 11:11:14;;;;;;;4.03;3.73;;;;;;;4.93;66.82;94174.78;5056392;28;20495;-78
2022/03/06 11:13:39;;;;;;;2.90;2.70;;;;;;;5.01;66.89;94169.56;5065575;28;20409;-78
2022/03/06 11:16:05;;;;;;;4.43;4.03;;;;;;;4.68;68.37;94181.88;5063220;28;20483;-78
2022/03/06 11:18:32;;;;;;;4.07;3.37;;;;;;;4.76;67.94;94179.28;5062014;28;20554;-78
2022/03/06 11:21:01;;;;;;;5.30;4.80;;;;;;;4.95;67.76;94174.63;5061912;28;20432;-78
2022/03/06 11:23:39;;;;;;;4.33;3.80;;;;;;;5.06;67.55;94179.41;5059347;28;20852;-78
2022/03/06 11:26:22;;;;;;;5.13;4.63;;;;;;;4.89;67.73;94176.09;5048364;28;20477;-78
2022/03/06 11:29:25;;;;;;;4.67;4.30;;;;;;;4.89;67.94;94176.94;5047101;28;20430;-79
2022/03/06 11:31:53;;;;;;;4.87;4.40;;;;;;;5.19;66.75;94181.44;5060246;28;20417;-79
2022/03/06 11:34:46;;;;;;;6.87;5.33;;;;;;;5.23;66.46;94173.13;5060066;28;20413;-78
2022/03/06 11:37:15;;;;;;;10.03;5.10;;;;;;;4.70;68.04;94177.34;5038515;28;20446;-79